sensor_id;sensor_type;location;lat;lon;timestamp;P1;durP1;ratioP1;P2;durP2;ratioP2
11827;SDS011;5971;49.646;8.568;2023-07-20T00:01:25;2.80;;;1.40;;
11827;SDS011;5971;49.646;8.568;2023-07-20T00:04:26;3.42;;;1.73;;
11827;SDS011;5971;49.646;8.568;2023-07-20T00:07:28;3.00;;;1.50;;
11827;SDS011;5971;49.646;8.568;2023-07-20T00:10:30;4.47;;;1.80;;
11827;SDS011;5971;49.646;8.568;2023-07-20T00:13:31;3.75;;;1.88;;
11827;SDS011;5971;49.646;8.568;2023-07-20T00:16:32;5.25;;;1.80;;
11827;SDS011;5971;49.646;8.568;2023-07-20T00:19:34;3.50;;;1.73;;
11827;SDS011;5971;49.646;8.568;2023-07-20T00:22:38;4.50;;;1.85;;
11827;SDS011;5971;49.646;8.568;2023-07-20T00:25:39;5.90;;;1.50;;
11827;SDS011;5971;49.646;8.568;2023-07-20T00:28:40;4.00;;;1.65;;
11827;SDS011;5971;49.646;8.568;2023-07-20T00:31:42;4.25;;;1.52;;
11827;SDS011;5971;49.646;8.568;2023-07-20T00:34:45;3.35;;;1.85;;
11827;SDS011;5971;49.646;8.568;2023-07-20T00:37:46;4.68;;;2.22;;
11827;SDS011;5971;49.646;8.568;2023-07-20T00:40:47;4.10;;;2.00;;
11827;SDS011;5971;49.646;8.568;2023-07-20T00:43:50;3.75;;;1.83;;
11827;SDS011;5971;49.646;8.568;2023-07-20T00:46:52;3.50;;;1.52;;
11827;SDS011;5971;49.646;8.568;2023-07-20T00:49:53;5.35;;;2.00;;
11827;SDS011;5971;49.646;8.568;2023-07-20T00:52:55;3.83;;;1.70;;
11827;SDS011;5971;49.646;8.568;2023-07-20T00:55:57;3.80;;;1.70;;
11827;SDS011;5971;49.646;8.568;2023-07-20T00:58:58;3.83;;;1.70;;
11827;SDS011;5971;49.646;8.568;2023-07-20T01:01:59;2.97;;;1.58;;
11827;SDS011;5971;49.646;8.568;2023-07-20T01:05:01;3.20;;;1.63;;
11827;SDS011;5971;49.646;8.568;2023-07-20T01:08:06;3.10;;;1.58;;
11827;SDS011;5971;49.646;8.568;2023-07-20T01:14:39;4.53;;;1.58;;
11827;SDS011;5971;49.646;8.568;2023-07-20T01:17:41;3.92;;;1.65;;
11827;SDS011;5971;49.646;8.568;2023-07-20T01:20:42;4.25;;;1.73;;
11827;SDS011;5971;49.646;8.568;2023-07-20T01:30:12;3.97;;;1.88;;
11827;SDS011;5971;49.646;8.568;2023-07-20T01:33:17;5.22;;;1.85;;
11827;SDS011;5971;49.646;8.568;2023-07-20T01:36:19;5.20;;;2.00;;
11827;SDS011;5971;49.646;8.568;2023-07-20T01:39:21;5.63;;;2.08;;
11827;SDS011;5971;49.646;8.568;2023-07-20T01:42:23;3.45;;;1.67;;
11827;SDS011;5971;49.646;8.568;2023-07-20T01:45:25;2.90;;;1.98;;
11827;SDS011;5971;49.646;8.568;2023-07-20T01:48:28;3.03;;;1.42;;
11827;SDS011;5971;49.646;8.568;2023-07-20T01:51:29;3.78;;;1.70;;
11827;SDS011;5971;49.646;8.568;2023-07-20T01:54:30;7.53;;;1.88;;
11827;SDS011;5971;49.646;8.568;2023-07-20T01:57:32;4.78;;;1.88;;
11827;SDS011;5971;49.646;8.568;2023-07-20T02:00:33;3.50;;;1.73;;
11827;SDS011;5971;49.646;8.568;2023-07-20T02:03:34;4.07;;;1.80;;
11827;SDS011;5971;49.646;8.568;2023-07-20T02:06:36;4.72;;;1.52;;
11827;SDS011;5971;49.646;8.568;2023-07-20T02:09:38;4.00;;;1.83;;
11827;SDS011;5971;49.646;8.568;2023-07-20T02:12:39;5.22;;;1.92;;
11827;SDS011;5971;49.646;8.568;2023-07-20T02:15:41;3.72;;;2.05;;
11827;SDS011;5971;49.646;8.568;2023-07-20T02:18:43;4.25;;;1.77;;
11827;SDS011;5971;49.646;8.568;2023-07-20T02:21:44;4.97;;;1.80;;
11827;SDS011;5971;49.646;8.568;2023-07-20T02:24:46;4.47;;;1.80;;
11827;SDS011;5971;49.646;8.568;2023-07-20T02:27:47;3.92;;;1.55;;
11827;SDS011;5971;49.646;8.568;2023-07-20T02:30:49;3.45;;;1.90;;
11827;SDS011;5971;49.646;8.568;2023-07-20T02:33:51;4.70;;;1.88;;
11827;SDS011;5971;49.646;8.568;2023-07-20T02:36:52;4.45;;;2.08;;
11827;SDS011;5971;49.646;8.568;2023-07-20T02:39:54;4.53;;;2.75;;
11827;SDS011;5971;49.646;8.568;2023-07-20T02:42:55;6.53;;;2.58;;
11827;SDS011;5971;49.646;8.568;2023-07-20T02:45:56;6.22;;;2.00;;
11827;SDS011;5971;49.646;8.568;2023-07-20T02:48:58;3.63;;;1.80;;
11827;SDS011;5971;49.646;8.568;2023-07-20T02:51:59;5.43;;;1.77;;
11827;SDS011;5971;49.646;8.568;2023-07-20T02:55:00;3.90;;;1.80;;
11827;SDS011;5971;49.646;8.568;2023-07-20T02:58:03;4.32;;;1.85;;
11827;SDS011;5971;49.646;8.568;2023-07-20T03:01:04;3.65;;;1.95;;
11827;SDS011;5971;49.646;8.568;2023-07-20T03:04:06;7.45;;;1.90;;
11827;SDS011;5971;49.646;8.568;2023-07-20T03:07:08;5.18;;;1.80;;
11827;SDS011;5971;49.646;8.568;2023-07-20T03:10:10;5.00;;;2.40;;
11827;SDS011;5971;49.646;8.568;2023-07-20T03:13:11;4.43;;;1.80;;
11827;SDS011;5971;49.646;8.568;2023-07-20T03:16:15;5.55;;;2.20;;
11827;SDS011;5971;49.646;8.568;2023-07-20T03:19:19;4.50;;;2.00;;
11827;SDS011;5971;49.646;8.568;2023-07-20T03:22:20;8.18;;;1.92;;
11827;SDS011;5971;49.646;8.568;2023-07-20T03:25:23;5.95;;;1.75;;
11827;SDS011;5971;49.646;8.568;2023-07-20T03:28:27;4.25;;;2.25;;
11827;SDS011;5971;49.646;8.568;2023-07-20T03:31:29;6.25;;;2.45;;
11827;SDS011;5971;49.646;8.568;2023-07-20T03:34:30;5.25;;;2.53;;
11827;SDS011;5971;49.646;8.568;2023-07-20T03:37:32;6.93;;;2.10;;
11827;SDS011;5971;49.646;8.568;2023-07-20T03:40:33;6.15;;;2.45;;
11827;SDS011;5971;49.646;8.568;2023-07-20T03:43:34;5.60;;;2.50;;
11827;SDS011;5971;49.646;8.568;2023-07-20T03:46:36;5.95;;;2.30;;
11827;SDS011;5971;49.646;8.568;2023-07-20T03:49:37;6.13;;;2.45;;
11827;SDS011;5971;49.646;8.568;2023-07-20T03:52:38;5.65;;;2.33;;
11827;SDS011;5971;49.646;8.568;2023-07-20T03:55:46;5.60;;;2.38;;
11827;SDS011;5971;49.646;8.568;2023-07-20T03:58:48;5.93;;;2.97;;
11827;SDS011;5971;49.646;8.568;2023-07-20T04:01:50;5.97;;;3.03;;
11827;SDS011;5971;49.646;8.568;2023-07-20T04:04:51;5.70;;;2.17;;
11827;SDS011;5971;49.646;8.568;2023-07-20T04:07:52;6.32;;;2.53;;
11827;SDS011;5971;49.646;8.568;2023-07-20T04:10:54;5.65;;;2.55;;
11827;SDS011;5971;49.646;8.568;2023-07-20T04:13:55;5.30;;;2.38;;
11827;SDS011;5971;49.646;8.568;2023-07-20T04:16:57;5.45;;;2.63;;
11827;SDS011;5971;49.646;8.568;2023-07-20T04:19:58;5.63;;;2.30;;
11827;SDS011;5971;49.646;8.568;2023-07-20T04:23:00;6.05;;;2.20;;
11827;SDS011;5971;49.646;8.568;2023-07-20T04:26:01;4.65;;;2.53;;
11827;SDS011;5971;49.646;8.568;2023-07-20T04:29:03;6.13;;;2.60;;
11827;SDS011;5971;49.646;8.568;2023-07-20T04:32:05;7.90;;;2.70;;
11827;SDS011;5971;49.646;8.568;2023-07-20T04:35:06;5.13;;;2.33;;
11827;SDS011;5971;49.646;8.568;2023-07-20T04:38:09;5.93;;;2.80;;
11827;SDS011;5971;49.646;8.568;2023-07-20T04:41:10;5.68;;;2.42;;
11827;SDS011;5971;49.646;8.568;2023-07-20T04:44:13;7.03;;;2.50;;
11827;SDS011;5971;49.646;8.568;2023-07-20T04:47:15;5.95;;;2.25;;
11827;SDS011;5971;49.646;8.568;2023-07-20T04:50:16;5.82;;;2.42;;
11827;SDS011;5971;49.646;8.568;2023-07-20T04:53:21;5.65;;;2.45;;
11827;SDS011;5971;49.646;8.568;2023-07-20T04:56:22;6.90;;;2.63;;
11827;SDS011;5971;49.646;8.568;2023-07-20T04:59:25;5.38;;;2.13;;
11827;SDS011;5971;49.646;8.568;2023-07-20T05:02:26;5.80;;;2.33;;
11827;SDS011;5971;49.646;8.568;2023-07-20T05:05:27;6.80;;;3.03;;
11827;SDS011;5971;49.646;8.568;2023-07-20T05:08:29;4.70;;;2.00;;
11827;SDS011;5971;49.646;8.568;2023-07-20T05:11:30;5.47;;;2.22;;
11827;SDS011;5971;49.646;8.568;2023-07-20T05:14:32;5.07;;;2.22;;
11827;SDS011;5971;49.646;8.568;2023-07-20T05:17:33;5.65;;;2.97;;
11827;SDS011;5971;49.646;8.568;2023-07-20T05:20:35;4.30;;;2.42;;
11827;SDS011;5971;49.646;8.568;2023-07-20T05:23:36;5.70;;;2.22;;
11827;SDS011;5971;49.646;8.568;2023-07-20T05:26:37;5.68;;;2.20;;
11827;SDS011;5971;49.646;8.568;2023-07-20T05:29:45;4.78;;;2.40;;
11827;SDS011;5971;49.646;8.568;2023-07-20T05:32:47;5.57;;;2.35;;
11827;SDS011;5971;49.646;8.568;2023-07-20T05:35:52;3.92;;;2.15;;
11827;SDS011;5971;49.646;8.568;2023-07-20T05:38:53;5.10;;;2.30;;
11827;SDS011;5971;49.646;8.568;2023-07-20T05:41:55;4.35;;;2.13;;
11827;SDS011;5971;49.646;8.568;2023-07-20T05:44:56;6.35;;;2.42;;
11827;SDS011;5971;49.646;8.568;2023-07-20T05:47:58;7.05;;;2.40;;
11827;SDS011;5971;49.646;8.568;2023-07-20T05:50:59;5.32;;;2.63;;
11827;SDS011;5971;49.646;8.568;2023-07-20T05:54:01;5.57;;;2.50;;
11827;SDS011;5971;49.646;8.568;2023-07-20T05:57:02;6.63;;;2.55;;
11827;SDS011;5971;49.646;8.568;2023-07-20T06:00:04;5.82;;;2.28;;
11827;SDS011;5971;49.646;8.568;2023-07-20T06:03:05;5.03;;;2.25;;
11827;SDS011;5971;49.646;8.568;2023-07-20T06:06:06;5.07;;;2.30;;
11827;SDS011;5971;49.646;8.568;2023-07-20T06:09:10;4.53;;;1.88;;
11827;SDS011;5971;49.646;8.568;2023-07-20T06:12:13;4.75;;;2.30;;
11827;SDS011;5971;49.646;8.568;2023-07-20T06:15:27;3.85;;;1.90;;
11827;SDS011;5971;49.646;8.568;2023-07-20T06:18:29;4.82;;;2.47;;
11827;SDS011;5971;49.646;8.568;2023-07-20T06:21:31;4.40;;;2.08;;
11827;SDS011;5971;49.646;8.568;2023-07-20T06:24:32;3.10;;;1.75;;
11827;SDS011;5971;49.646;8.568;2023-07-20T06:27:34;6.07;;;2.45;;
11827;SDS011;5971;49.646;8.568;2023-07-20T06:30:35;4.20;;;2.13;;
11827;SDS011;5971;49.646;8.568;2023-07-20T06:33:36;4.40;;;2.20;;
11827;SDS011;5971;49.646;8.568;2023-07-20T06:36:38;5.70;;;2.00;;
11827;SDS011;5971;49.646;8.568;2023-07-20T06:39:39;4.40;;;2.15;;
11827;SDS011;5971;49.646;8.568;2023-07-20T06:42:44;3.78;;;1.92;;
11827;SDS011;5971;49.646;8.568;2023-07-20T06:45:52;4.10;;;1.70;;
11827;SDS011;5971;49.646;8.568;2023-07-20T06:48:56;4.25;;;1.73;;
11827;SDS011;5971;49.646;8.568;2023-07-20T06:52:01;6.32;;;1.92;;
11827;SDS011;5971;49.646;8.568;2023-07-20T06:55:03;4.65;;;1.98;;
11827;SDS011;5971;49.646;8.568;2023-07-20T06:58:06;4.10;;;2.13;;
11827;SDS011;5971;49.646;8.568;2023-07-20T07:01:08;4.78;;;2.20;;
11827;SDS011;5971;49.646;8.568;2023-07-20T07:04:09;3.55;;;1.83;;
11827;SDS011;5971;49.646;8.568;2023-07-20T07:07:11;4.50;;;1.83;;
11827;SDS011;5971;49.646;8.568;2023-07-20T07:10:12;3.88;;;1.77;;
11827;SDS011;5971;49.646;8.568;2023-07-20T07:13:14;4.10;;;1.50;;
11827;SDS011;5971;49.646;8.568;2023-07-20T07:16:15;3.17;;;1.42;;
11827;SDS011;5971;49.646;8.568;2023-07-20T07:19:20;4.25;;;2.00;;
11827;SDS011;5971;49.646;8.568;2023-07-20T07:22:22;4.00;;;1.60;;
11827;SDS011;5971;49.646;8.568;2023-07-20T07:25:23;5.32;;;1.83;;
11827;SDS011;5971;49.646;8.568;2023-07-20T07:28:25;3.63;;;1.70;;
11827;SDS011;5971;49.646;8.568;2023-07-20T07:31:26;4.07;;;2.22;;
11827;SDS011;5971;49.646;8.568;2023-07-20T07:34:28;4.85;;;1.55;;
11827;SDS011;5971;49.646;8.568;2023-07-20T07:37:29;3.97;;;1.90;;
11827;SDS011;5971;49.646;8.568;2023-07-20T07:40:36;4.00;;;2.03;;
11827;SDS011;5971;49.646;8.568;2023-07-20T07:43:37;5.45;;;1.83;;
11827;SDS011;5971;49.646;8.568;2023-07-20T07:46:40;4.60;;;1.67;;
11827;SDS011;5971;49.646;8.568;2023-07-20T07:49:43;3.63;;;1.60;;
11827;SDS011;5971;49.646;8.568;2023-07-20T07:52:47;4.95;;;2.10;;
11827;SDS011;5971;49.646;8.568;2023-07-20T07:55:48;4.20;;;2.15;;
11827;SDS011;5971;49.646;8.568;2023-07-20T07:58:50;3.38;;;1.73;;
11827;SDS011;5971;49.646;8.568;2023-07-20T08:01:52;5.40;;;1.90;;
11827;SDS011;5971;49.646;8.568;2023-07-20T08:04:54;4.30;;;2.03;;
11827;SDS011;5971;49.646;8.568;2023-07-20T08:07:55;3.95;;;1.95;;
11827;SDS011;5971;49.646;8.568;2023-07-20T08:10:57;4.53;;;2.00;;
11827;SDS011;5971;49.646;8.568;2023-07-20T08:14:02;3.58;;;1.85;;
11827;SDS011;5971;49.646;8.568;2023-07-20T08:17:04;2.95;;;1.55;;
11827;SDS011;5971;49.646;8.568;2023-07-20T08:20:06;3.78;;;1.73;;
11827;SDS011;5971;49.646;8.568;2023-07-20T08:23:07;3.47;;;1.73;;
11827;SDS011;5971;49.646;8.568;2023-07-20T08:26:10;2.97;;;1.42;;
11827;SDS011;5971;49.646;8.568;2023-07-20T08:29:12;4.25;;;1.80;;
11827;SDS011;5971;49.646;8.568;2023-07-20T08:32:13;3.88;;;1.55;;
11827;SDS011;5971;49.646;8.568;2023-07-20T08:35:15;3.63;;;2.00;;
11827;SDS011;5971;49.646;8.568;2023-07-20T08:38:17;5.28;;;1.90;;
11827;SDS011;5971;49.646;8.568;2023-07-20T08:41:18;4.65;;;1.63;;
11827;SDS011;5971;49.646;8.568;2023-07-20T08:44:19;8.43;;;2.25;;
11827;SDS011;5971;49.646;8.568;2023-07-20T08:47:21;4.30;;;2.00;;
11827;SDS011;5971;49.646;8.568;2023-07-20T08:50:26;4.93;;;1.83;;
11827;SDS011;5971;49.646;8.568;2023-07-20T08:53:27;4.25;;;1.50;;
11827;SDS011;5971;49.646;8.568;2023-07-20T08:56:29;5.28;;;1.65;;
11827;SDS011;5971;49.646;8.568;2023-07-20T08:59:31;3.30;;;1.90;;
11827;SDS011;5971;49.646;8.568;2023-07-20T09:02:35;3.03;;;1.60;;
11827;SDS011;5971;49.646;8.568;2023-07-20T09:05:37;2.97;;;1.48;;
11827;SDS011;5971;49.646;8.568;2023-07-20T09:08:38;3.28;;;1.50;;
11827;SDS011;5971;49.646;8.568;2023-07-20T09:11:40;3.30;;;1.40;;
11827;SDS011;5971;49.646;8.568;2023-07-20T09:14:45;3.40;;;1.45;;
11827;SDS011;5971;49.646;8.568;2023-07-20T09:17:46;2.55;;;1.33;;
11827;SDS011;5971;49.646;8.568;2023-07-20T09:20:49;3.95;;;1.60;;
11827;SDS011;5971;49.646;8.568;2023-07-20T09:23:50;2.97;;;1.40;;
11827;SDS011;5971;49.646;8.568;2023-07-20T09:26:57;3.15;;;1.30;;
11827;SDS011;5971;49.646;8.568;2023-07-20T09:29:58;3.20;;;1.38;;
11827;SDS011;5971;49.646;8.568;2023-07-20T09:33:00;2.83;;;1.60;;
11827;SDS011;5971;49.646;8.568;2023-07-20T09:36:02;3.35;;;1.75;;
11827;SDS011;5971;49.646;8.568;2023-07-20T09:39:24;2.50;;;1.42;;
11827;SDS011;5971;49.646;8.568;2023-07-20T09:42:28;3.15;;;1.50;;
11827;SDS011;5971;49.646;8.568;2023-07-20T09:45:35;2.40;;;1.30;;
11827;SDS011;5971;49.646;8.568;2023-07-20T09:48:58;3.58;;;1.48;;
11827;SDS011;5971;49.646;8.568;2023-07-20T09:52:03;3.30;;;1.60;;
11827;SDS011;5971;49.646;8.568;2023-07-20T09:55:05;3.42;;;1.55;;
11827;SDS011;5971;49.646;8.568;2023-07-20T09:58:06;2.47;;;1.38;;
11827;SDS011;5971;49.646;8.568;2023-07-20T10:01:09;3.05;;;1.42;;
11827;SDS011;5971;49.646;8.568;2023-07-20T10:04:11;3.08;;;1.52;;
11827;SDS011;5971;49.646;8.568;2023-07-20T10:07:13;3.78;;;1.58;;
11827;SDS011;5971;49.646;8.568;2023-07-20T10:10:15;3.20;;;1.58;;
11827;SDS011;5971;49.646;8.568;2023-07-20T10:13:19;3.10;;;1.38;;
11827;SDS011;5971;49.646;8.568;2023-07-20T10:16:26;3.00;;;1.60;;
11827;SDS011;5971;49.646;8.568;2023-07-20T10:19:49;4.28;;;1.52;;
11827;SDS011;5971;49.646;8.568;2023-07-20T10:22:53;2.05;;;1.10;;
11827;SDS011;5971;49.646;8.568;2023-07-20T10:25:55;2.42;;;1.42;;
11827;SDS011;5971;49.646;8.568;2023-07-20T10:28:56;3.13;;;1.42;;
11827;SDS011;5971;49.646;8.568;2023-07-20T10:31:58;2.92;;;1.30;;
11827;SDS011;5971;49.646;8.568;2023-07-20T10:35:00;2.75;;;1.20;;
11827;SDS011;5971;49.646;8.568;2023-07-20T10:38:01;3.55;;;1.15;;
11827;SDS011;5971;49.646;8.568;2023-07-20T10:41:03;2.22;;;1.35;;
11827;SDS011;5971;49.646;8.568;2023-07-20T10:44:05;3.10;;;1.38;;
11827;SDS011;5971;49.646;8.568;2023-07-20T10:47:11;3.25;;;1.33;;
11827;SDS011;5971;49.646;8.568;2023-07-20T10:50:13;3.42;;;1.40;;
11827;SDS011;5971;49.646;8.568;2023-07-20T10:53:16;1.95;;;1.20;;
11827;SDS011;5971;49.646;8.568;2023-07-20T10:56:21;2.95;;;1.40;;
11827;SDS011;5971;49.646;8.568;2023-07-20T11:02:25;2.42;;;1.15;;
11827;SDS011;5971;49.646;8.568;2023-07-20T11:08:41;2.97;;;1.25;;
11827;SDS011;5971;49.646;8.568;2023-07-20T11:11:46;2.42;;;1.70;;
11827;SDS011;5971;49.646;8.568;2023-07-20T11:14:57;2.78;;;1.45;;
11827;SDS011;5971;49.646;8.568;2023-07-20T11:18:10;2.95;;;1.45;;
11827;SDS011;5971;49.646;8.568;2023-07-20T11:21:13;2.95;;;1.48;;
11827;SDS011;5971;49.646;8.568;2023-07-20T11:24:15;2.88;;;1.50;;
11827;SDS011;5971;49.646;8.568;2023-07-20T11:27:16;2.90;;;2.05;;
11827;SDS011;5971;49.646;8.568;2023-07-20T11:30:23;2.15;;;1.30;;
11827;SDS011;5971;49.646;8.568;2023-07-20T11:33:25;2.35;;;1.25;;
11827;SDS011;5971;49.646;8.568;2023-07-20T11:36:26;3.30;;;1.13;;
11827;SDS011;5971;49.646;8.568;2023-07-20T11:39:30;2.63;;;1.20;;
11827;SDS011;5971;49.646;8.568;2023-07-20T11:42:32;2.03;;;1.15;;
11827;SDS011;5971;49.646;8.568;2023-07-20T11:45:37;3.75;;;1.33;;
11827;SDS011;5971;49.646;8.568;2023-07-20T11:48:39;3.25;;;1.20;;
11827;SDS011;5971;49.646;8.568;2023-07-20T11:51:41;3.30;;;1.30;;
11827;SDS011;5971;49.646;8.568;2023-07-20T11:54:43;2.28;;;1.25;;
11827;SDS011;5971;49.646;8.568;2023-07-20T11:58:05;2.75;;;1.45;;
11827;SDS011;5971;49.646;8.568;2023-07-20T12:01:06;2.47;;;1.23;;
11827;SDS011;5971;49.646;8.568;2023-07-20T12:04:08;2.42;;;1.35;;
11827;SDS011;5971;49.646;8.568;2023-07-20T12:07:09;2.50;;;1.42;;
11827;SDS011;5971;49.646;8.568;2023-07-20T12:10:11;2.42;;;1.30;;
11827;SDS011;5971;49.646;8.568;2023-07-20T12:13:13;2.90;;;1.60;;
11827;SDS011;5971;49.646;8.568;2023-07-20T12:16:15;2.53;;;1.40;;
11827;SDS011;5971;49.646;8.568;2023-07-20T12:19:16;3.88;;;1.20;;
11827;SDS011;5971;49.646;8.568;2023-07-20T12:22:18;2.05;;;0.93;;
11827;SDS011;5971;49.646;8.568;2023-07-20T12:25:19;3.20;;;1.08;;
11827;SDS011;5971;49.646;8.568;2023-07-20T12:28:21;2.05;;;1.17;;
11827;SDS011;5971;49.646;8.568;2023-07-20T12:31:23;1.85;;;1.15;;
11827;SDS011;5971;49.646;8.568;2023-07-20T12:34:25;3.58;;;1.42;;
11827;SDS011;5971;49.646;8.568;2023-07-20T12:37:27;3.53;;;1.30;;
11827;SDS011;5971;49.646;8.568;2023-07-20T12:40:28;2.15;;;1.20;;
11827;SDS011;5971;49.646;8.568;2023-07-20T12:43:29;3.85;;;1.38;;
11827;SDS011;5971;49.646;8.568;2023-07-20T12:46:31;2.45;;;1.20;;
11827;SDS011;5971;49.646;8.568;2023-07-20T12:49:36;3.42;;;1.33;;
11827;SDS011;5971;49.646;8.568;2023-07-20T12:52:40;2.83;;;1.42;;
11827;SDS011;5971;49.646;8.568;2023-07-20T12:55:42;4.72;;;1.33;;
11827;SDS011;5971;49.646;8.568;2023-07-20T12:58:43;3.58;;;1.42;;
11827;SDS011;5971;49.646;8.568;2023-07-20T13:01:45;3.10;;;1.17;;
11827;SDS011;5971;49.646;8.568;2023-07-20T13:04:46;3.75;;;1.33;;
11827;SDS011;5971;49.646;8.568;2023-07-20T13:07:47;3.88;;;1.85;;
11827;SDS011;5971;49.646;8.568;2023-07-20T13:10:53;2.47;;;1.50;;
11827;SDS011;5971;49.646;8.568;2023-07-20T13:13:55;2.85;;;1.20;;
11827;SDS011;5971;49.646;8.568;2023-07-20T13:16:56;2.80;;;1.42;;
11827;SDS011;5971;49.646;8.568;2023-07-20T13:19:57;2.47;;;1.30;;
11827;SDS011;5971;49.646;8.568;2023-07-20T13:22:59;2.30;;;1.40;;
11827;SDS011;5971;49.646;8.568;2023-07-20T13:26:00;3.92;;;1.40;;
11827;SDS011;5971;49.646;8.568;2023-07-20T13:29:02;3.08;;;1.30;;
11827;SDS011;5971;49.646;8.568;2023-07-20T13:32:03;2.28;;;1.35;;
11827;SDS011;5971;49.646;8.568;2023-07-20T13:35:08;2.22;;;1.23;;
11827;SDS011;5971;49.646;8.568;2023-07-20T13:38:09;2.55;;;1.17;;
11827;SDS011;5971;49.646;8.568;2023-07-20T13:41:11;2.03;;;1.25;;
11827;SDS011;5971;49.646;8.568;2023-07-20T13:44:12;2.40;;;1.40;;
11827;SDS011;5971;49.646;8.568;2023-07-20T13:47:18;2.67;;;1.45;;
11827;SDS011;5971;49.646;8.568;2023-07-20T13:50:22;3.42;;;1.38;;
11827;SDS011;5971;49.646;8.568;2023-07-20T13:53:40;2.33;;;1.20;;
11827;SDS011;5971;49.646;8.568;2023-07-20T13:56:45;2.30;;;1.33;;
11827;SDS011;5971;49.646;8.568;2023-07-20T13:59:46;2.08;;;1.33;;
11827;SDS011;5971;49.646;8.568;2023-07-20T14:02:47;3.30;;;1.42;;
11827;SDS011;5971;49.646;8.568;2023-07-20T14:05:52;2.72;;;1.50;;
11827;SDS011;5971;49.646;8.568;2023-07-20T14:08:56;2.38;;;1.25;;
11827;SDS011;5971;49.646;8.568;2023-07-20T14:11:57;3.15;;;1.30;;
11827;SDS011;5971;49.646;8.568;2023-07-20T14:15:03;2.53;;;1.25;;
11827;SDS011;5971;49.646;8.568;2023-07-20T14:21:07;3.45;;;1.30;;
11827;SDS011;5971;49.646;8.568;2023-07-20T14:24:09;2.38;;;1.33;;
11827;SDS011;5971;49.646;8.568;2023-07-20T14:27:11;2.55;;;1.35;;
11827;SDS011;5971;49.646;8.568;2023-07-20T14:30:12;3.10;;;1.30;;
11827;SDS011;5971;49.646;8.568;2023-07-20T14:33:15;2.78;;;1.50;;
11827;SDS011;5971;49.646;8.568;2023-07-20T14:36:16;3.15;;;1.40;;
11827;SDS011;5971;49.646;8.568;2023-07-20T14:39:19;3.47;;;1.58;;
11827;SDS011;5971;49.646;8.568;2023-07-20T14:42:21;2.35;;;1.23;;
11827;SDS011;5971;49.646;8.568;2023-07-20T14:45:22;3.05;;;1.70;;
11827;SDS011;5971;49.646;8.568;2023-07-20T14:48:24;2.78;;;1.30;;
11827;SDS011;5971;49.646;8.568;2023-07-20T14:51:25;2.70;;;1.55;;
11827;SDS011;5971;49.646;8.568;2023-07-20T14:54:38;2.55;;;1.30;;
11827;SDS011;5971;49.646;8.568;2023-07-20T14:57:39;2.65;;;1.42;;
11827;SDS011;5971;49.646;8.568;2023-07-20T15:00:41;2.60;;;1.45;;
11827;SDS011;5971;49.646;8.568;2023-07-20T15:03:42;2.90;;;1.45;;
11827;SDS011;5971;49.646;8.568;2023-07-20T15:06:43;2.30;;;1.35;;
11827;SDS011;5971;49.646;8.568;2023-07-20T15:09:45;2.28;;;1.27;;
11827;SDS011;5971;49.646;8.568;2023-07-20T15:12:47;3.67;;;1.33;;
11827;SDS011;5971;49.646;8.568;2023-07-20T15:15:48;2.70;;;1.38;;
11827;SDS011;5971;49.646;8.568;2023-07-20T15:18:50;3.20;;;1.33;;
11827;SDS011;5971;49.646;8.568;2023-07-20T15:21:51;2.63;;;1.55;;
11827;SDS011;5971;49.646;8.568;2023-07-20T15:24:53;2.42;;;1.27;;
11827;SDS011;5971;49.646;8.568;2023-07-20T15:27:54;2.30;;;1.15;;
11827;SDS011;5971;49.646;8.568;2023-07-20T15:31:00;2.50;;;1.23;;
11827;SDS011;5971;49.646;8.568;2023-07-20T15:34:02;3.70;;;1.60;;
11827;SDS011;5971;49.646;8.568;2023-07-20T15:37:04;2.22;;;1.30;;
11827;SDS011;5971;49.646;8.568;2023-07-20T15:40:06;5.13;;;1.40;;
11827;SDS011;5971;49.646;8.568;2023-07-20T15:43:08;2.25;;;1.42;;
11827;SDS011;5971;49.646;8.568;2023-07-20T15:46:43;2.67;;;1.52;;
11827;SDS011;5971;49.646;8.568;2023-07-20T15:49:34;2.47;;;1.38;;
11827;SDS011;5971;49.646;8.568;2023-07-20T15:52:35;2.55;;;1.30;;
11827;SDS011;5971;49.646;8.568;2023-07-20T15:55:36;3.92;;;1.70;;
11827;SDS011;5971;49.646;8.568;2023-07-20T15:58:38;3.10;;;1.60;;
11827;SDS011;5971;49.646;8.568;2023-07-20T16:01:40;10.60;;;2.38;;
11827;SDS011;5971;49.646;8.568;2023-07-20T16:04:42;4.43;;;1.73;;
11827;SDS011;5971;49.646;8.568;2023-07-20T16:07:53;3.85;;;1.30;;
11827;SDS011;5971;49.646;8.568;2023-07-20T16:10:54;2.92;;;1.33;;
11827;SDS011;5971;49.646;8.568;2023-07-20T16:13:59;2.60;;;1.60;;
11827;SDS011;5971;49.646;8.568;2023-07-20T16:17:03;2.83;;;1.35;;
11827;SDS011;5971;49.646;8.568;2023-07-20T16:20:04;4.18;;;1.60;;
11827;SDS011;5971;49.646;8.568;2023-07-20T16:23:08;5.03;;;1.30;;
11827;SDS011;5971;49.646;8.568;2023-07-20T16:26:09;3.17;;;1.33;;
11827;SDS011;5971;49.646;8.568;2023-07-20T16:29:12;3.67;;;1.42;;
11827;SDS011;5971;49.646;8.568;2023-07-20T16:32:17;2.20;;;1.23;;
11827;SDS011;5971;49.646;8.568;2023-07-20T16:35:18;3.95;;;1.52;;
11827;SDS011;5971;49.646;8.568;2023-07-20T16:38:24;3.97;;;1.58;;
11827;SDS011;5971;49.646;8.568;2023-07-20T16:41:25;2.42;;;1.45;;
11827;SDS011;5971;49.646;8.568;2023-07-20T16:44:29;3.15;;;1.63;;
11827;SDS011;5971;49.646;8.568;2023-07-20T16:47:30;2.85;;;1.40;;
11827;SDS011;5971;49.646;8.568;2023-07-20T16:50:32;2.85;;;1.48;;
11827;SDS011;5971;49.646;8.568;2023-07-20T16:53:33;4.28;;;1.48;;
11827;SDS011;5971;49.646;8.568;2023-07-20T16:56:35;4.32;;;1.50;;
11827;SDS011;5971;49.646;8.568;2023-07-20T16:59:36;3.42;;;1.58;;
11827;SDS011;5971;49.646;8.568;2023-07-20T17:02:38;3.28;;;1.58;;
11827;SDS011;5971;49.646;8.568;2023-07-20T17:05:41;3.20;;;1.55;;
11827;SDS011;5971;49.646;8.568;2023-07-20T17:08:42;4.22;;;1.73;;
11827;SDS011;5971;49.646;8.568;2023-07-20T17:11:43;3.10;;;1.48;;
11827;SDS011;5971;49.646;8.568;2023-07-20T17:14:45;3.42;;;1.90;;
11827;SDS011;5971;49.646;8.568;2023-07-20T17:17:46;3.10;;;1.60;;
11827;SDS011;5971;49.646;8.568;2023-07-20T17:20:48;2.33;;;1.50;;
11827;SDS011;5971;49.646;8.568;2023-07-20T17:23:52;2.45;;;1.42;;
11827;SDS011;5971;49.646;8.568;2023-07-20T17:26:56;4.63;;;1.75;;
11827;SDS011;5971;49.646;8.568;2023-07-20T17:30:01;2.30;;;1.40;;
11827;SDS011;5971;49.646;8.568;2023-07-20T17:33:02;3.65;;;1.75;;
11827;SDS011;5971;49.646;8.568;2023-07-20T17:36:04;2.40;;;1.58;;
11827;SDS011;5971;49.646;8.568;2023-07-20T17:39:08;3.28;;;1.38;;
11827;SDS011;5971;49.646;8.568;2023-07-20T17:42:10;3.42;;;1.70;;
11827;SDS011;5971;49.646;8.568;2023-07-20T17:45:14;2.67;;;1.52;;
11827;SDS011;5971;49.646;8.568;2023-07-20T17:48:16;3.20;;;1.65;;
11827;SDS011;5971;49.646;8.568;2023-07-20T17:51:19;3.80;;;1.52;;
11827;SDS011;5971;49.646;8.568;2023-07-20T17:54:20;3.90;;;1.60;;
11827;SDS011;5971;49.646;8.568;2023-07-20T17:57:21;3.30;;;1.70;;
11827;SDS011;5971;49.646;8.568;2023-07-20T18:00:23;2.38;;;1.48;;
11827;SDS011;5971;49.646;8.568;2023-07-20T18:03:27;3.17;;;1.75;;
11827;SDS011;5971;49.646;8.568;2023-07-20T18:06:29;4.28;;;1.77;;
11827;SDS011;5971;49.646;8.568;2023-07-20T18:09:30;3.33;;;1.60;;
11827;SDS011;5971;49.646;8.568;2023-07-20T18:12:32;3.97;;;1.33;;
11827;SDS011;5971;49.646;8.568;2023-07-20T18:15:33;3.15;;;1.50;;
11827;SDS011;5971;49.646;8.568;2023-07-20T18:18:34;2.88;;;1.45;;
11827;SDS011;5971;49.646;8.568;2023-07-20T18:21:36;3.40;;;1.73;;
11827;SDS011;5971;49.646;8.568;2023-07-20T18:24:37;2.92;;;1.35;;
11827;SDS011;5971;49.646;8.568;2023-07-20T18:27:39;4.18;;;1.60;;
11827;SDS011;5971;49.646;8.568;2023-07-20T18:30:41;3.30;;;1.75;;
11827;SDS011;5971;49.646;8.568;2023-07-20T18:33:43;2.70;;;1.58;;
11827;SDS011;5971;49.646;8.568;2023-07-20T18:36:45;2.50;;;1.50;;
11827;SDS011;5971;49.646;8.568;2023-07-20T18:39:48;4.13;;;1.63;;
11827;SDS011;5971;49.646;8.568;2023-07-20T18:42:49;3.75;;;2.03;;
11827;SDS011;5971;49.646;8.568;2023-07-20T18:45:53;3.78;;;1.75;;
11827;SDS011;5971;49.646;8.568;2023-07-20T18:48:55;3.25;;;1.65;;
11827;SDS011;5971;49.646;8.568;2023-07-20T18:51:57;3.92;;;1.70;;
11827;SDS011;5971;49.646;8.568;2023-07-20T18:54:58;2.65;;;1.52;;